Time;durP1;ratioP1;P1;durP2;ratioP2;P2;SDS_P1;SDS_P2;PMS_P1;PMS_P2;Temp;Humidity;BMP_temperature;BMP_pressure;BME280_temperature;BME280_humidity;BME280_pressure;Samples;Min_cycle;Max_cycle;Signal;HPM_P1;HPM_P2
2021/05/03 00:00:18;;;;;;;0.40;0.20;;;;;;;-142.37;100.00;59669.53;5031913;28;20044;-57
2021/05/03 00:02:44;;;;;;;0.57;0.10;;;;;;;-142.37;100.00;59669.53;5032155;28;20064;-58
2021/05/03 00:05:36;;;;;;;1.23;0.22;;;;;;;-142.37;100.00;59669.53;5031685;28;20117;-57
2021/05/03 00:08:01;;;;;;;1.00;0.20;;;;;;;-142.37;100.00;59669.53;5036018;28;20044;-58
2021/05/03 00:10:26;;;;;;;0.47;0.20;;;;;;;-142.37;100.00;59669.53;5035440;28;20021;-57
2021/05/03 00:12:52;;;;;;;0.32;0.10;;;;;;;-142.37;100.00;59669.53;5035740;28;20144;-58
2021/05/03 00:15:18;;;;;;;0.50;0.17;;;;;;;-142.37;100.00;59669.53;5035517;28;20021;-57
2021/05/03 00:17:44;;;;;;;0.10;0.10;;;;;;;-142.37;100.00;59669.53;5035520;28;20477;-57
2021/05/03 00:20:10;;;;;;;0.38;0.10;;;;;;;-142.37;100.00;59669.53;5035386;28;20057;-58
2021/05/03 00:22:36;;;;;;;0.20;0.10;;;;;;;-142.37;100.00;59669.53;5035341;28;20036;-57
2021/05/03 00:25:03;;;;;;;0.35;0.10;;;;;;;-142.37;100.00;59669.53;5035407;28;20030;-58
2021/05/03 00:27:28;;;;;;;0.35;0.15;;;;;;;-142.37;100.00;59669.53;5035137;28;20033;-58
2021/05/03 00:29:53;;;;;;;0.15;0.15;;;;;;;-142.37;100.00;59669.53;5035635;28;20350;-58
2021/05/03 00:32:19;;;;;;;0.17;0.10;;;;;;;-142.37;100.00;59669.53;5035209;28;20498;-57
2021/05/03 00:34:44;;;;;;;0.70;0.10;;;;;;;-142.37;100.00;59669.53;5035237;28;20068;-57
2021/05/03 00:37:09;;;;;;;0.57;0.10;;;;;;;-142.37;100.00;59669.53;5035213;28;20032;-58
2021/05/03 00:39:35;;;;;;;1.15;0.22;;;;;;;-142.37;100.00;59669.53;5035081;28;20385;-58
2021/05/03 00:42:00;;;;;;;0.17;0.10;;;;;;;-142.37;100.00;59669.53;5052345;28;20120;-58
2021/05/03 00:44:27;;;;;;;0.40;0.10;;;;;;;-142.37;100.00;59669.53;5054803;28;20062;-58
2021/05/03 00:46:55;;;;;;;0.30;0.20;;;;;;;-142.37;100.00;59669.53;5054911;28;20025;-58
2021/05/03 00:49:21;;;;;;;0.85;0.20;;;;;;;-142.37;100.00;59669.53;5040581;28;20350;-58
2021/05/03 00:51:46;;;;;;;0.10;0.00;;;;;;;-142.37;100.00;59669.53;5034881;28;20024;-58
2021/05/03 00:54:12;;;;;;;0.63;0.20;;;;;;;-142.37;100.00;59669.53;5033366;28;20453;-58
2021/05/03 00:56:37;;;;;;;0.40;0.30;;;;;;;-142.37;100.00;59669.53;5034694;28;20469;-57
2021/05/03 00:59:02;;;;;;;0.20;0.10;;;;;;;-142.37;100.00;59669.53;5034784;28;20036;-58
2021/05/03 01:01:28;;;;;;;0.50;0.10;;;;;;;-142.37;100.00;59669.53;5034559;28;20029;-58
2021/05/03 01:03:53;;;;;;;0.82;0.20;;;;;;;-142.37;100.00;59669.53;5034521;28;20095;-58
2021/05/03 01:06:18;;;;;;;0.15;0.10;;;;;;;-142.37;100.00;59669.53;5049926;28;20052;-58
2021/05/03 01:08:45;;;;;;;0.55;0.20;;;;;;;-142.37;100.00;59669.53;5034818;28;20030;-57
2021/05/03 01:11:11;;;;;;;0.47;0.20;;;;;;;-142.37;100.00;59669.53;5034506;28;20057;-58
2021/05/03 01:13:36;;;;;;;0.30;0.10;;;;;;;-142.37;100.00;59669.53;5034398;28;20045;-58
2021/05/03 01:16:01;;;;;;;0.63;0.30;;;;;;;-142.37;100.00;59669.53;5034042;28;20043;-57
2021/05/03 01:18:29;;;;;;;0.40;0.20;;;;;;;-142.37;100.00;59669.53;5033613;28;20021;-58
2021/05/03 01:20:57;;;;;;;0.25;0.10;;;;;;;-142.37;100.00;59669.53;5034269;28;20068;-58
2021/05/03 01:23:23;;;;;;;0.10;0.10;;;;;;;-142.37;100.00;59669.53;5033986;28;20026;-58
2021/05/03 01:25:48;;;;;;;0.45;0.20;;;;;;;-142.37;100.00;59669.53;5034261;28;20059;-57
2021/05/03 01:28:13;;;;;;;0.35;0.10;;;;;;;-142.37;100.00;59669.53;5034141;28;20108;-57
2021/05/03 01:30:44;;;;;;;1.85;0.20;;;;;;;-142.37;100.00;59669.53;5034132;28;20044;-58
2021/05/03 01:33:11;;;;;;;0.50;0.10;;;;;;;-142.37;100.00;59669.53;5034064;28;20385;-57
2021/05/03 01:35:38;;;;;;;0.10;0.10;;;;;;;-142.37;100.00;59669.53;5033687;28;20032;-58
2021/05/03 01:38:06;;;;;;;0.45;0.20;;;;;;;-142.37;100.00;59669.53;5033967;28;20029;-58
2021/05/03 01:40:33;;;;;;;1.05;0.20;;;;;;;-142.37;100.00;59669.53;5032453;28;20099;-58
2021/05/03 01:43:19;;;;;;;0.55;0.20;;;;;;;-142.37;100.00;59669.53;5033928;28;20040;-58
2021/05/03 01:45:47;;;;;;;0.57;0.28;;;;;;;-142.37;100.00;59669.53;5033778;28;20025;-57
2021/05/03 01:48:15;;;;;;;0.30;0.10;;;;;;;-142.37;100.00;59669.53;5033782;28;20025;-58
2021/05/03 01:50:40;;;;;;;0.73;0.22;;;;;;;-142.37;100.00;59669.53;5033641;28;20025;-57
2021/05/03 01:53:07;;;;;;;0.20;0.10;;;;;;;-142.37;100.00;59669.53;5033834;28;20029;-58
2021/05/03 01:55:37;;;;;;;0.50;0.30;;;;;;;-142.37;100.00;59669.53;5033432;28;20071;-58
2021/05/03 01:58:07;;;;;;;0.63;0.20;;;;;;;-142.37;100.00;59669.53;5032279;28;20064;-57
2021/05/03 02:00:34;;;;;;;0.85;0.10;;;;;;;-142.37;100.00;59669.53;5033299;28;20025;-58
2021/05/03 02:03:00;;;;;;;0.13;0.10;;;;;;;-142.37;100.00;59669.53;5033575;28;20024;-57
2021/05/03 02:05:26;;;;;;;0.10;0.10;;;;;;;-142.37;100.00;59669.53;5033369;28;20025;-58
2021/05/03 02:08:05;;;;;;;0.55;0.20;;;;;;;-142.37;100.00;59669.53;5032142;28;20040;-57
2021/05/03 02:10:32;;;;;;;0.98;0.20;;;;;;;-142.37;100.00;59669.53;5031872;28;20025;-58
2021/05/03 02:12:58;;;;;;;0.45;0.20;;;;;;;-142.37;100.00;59669.53;5033502;28;20025;-58
2021/05/03 02:15:25;;;;;;;0.47;0.30;;;;;;;-142.37;100.00;59669.53;5033148;28;20064;-57
2021/05/03 02:17:51;;;;;;;0.57;0.20;;;;;;;-142.37;100.00;59669.53;5033133;28;20104;-58
2021/05/03 02:20:17;;;;;;;0.70;0.20;;;;;;;-142.37;100.00;59669.53;5033044;28;20129;-57
2021/05/03 02:22:43;;;;;;;1.20;0.47;;;;;;;-142.37;100.00;59669.53;5033094;28;20440;-58
2021/05/03 02:25:10;;;;;;;0.28;0.20;;;;;;;-142.37;100.00;59669.53;5033142;28;20057;-58
2021/05/03 02:27:36;;;;;;;0.28;0.20;;;;;;;-142.37;100.00;59669.53;5032656;28;20116;-58
2021/05/03 02:30:02;;;;;;;0.30;0.20;;;;;;;-142.37;100.00;59669.53;5033019;28;20060;-58
2021/05/03 02:32:27;;;;;;;0.57;0.10;;;;;;;-142.37;100.00;59669.53;5032779;28;20052;-57
2021/05/03 02:34:53;;;;;;;0.28;0.10;;;;;;;-142.37;100.00;59669.53;5032974;28;20467;-58
2021/05/03 02:37:20;;;;;;;0.20;0.17;;;;;;;-142.37;100.00;59669.53;5032823;28;20029;-58
2021/05/03 02:39:45;;;;;;;0.70;0.20;;;;;;;-142.37;100.00;59669.53;5032848;28;20040;-57
2021/05/03 02:42:11;;;;;;;0.95;0.68;;;;;;;-142.37;100.00;59669.53;5051606;28;20380;-58
2021/05/03 02:44:39;;;;;;;0.22;0.20;;;;;;;-142.37;100.00;59669.53;5052543;28;20033;-58
2021/05/03 02:47:07;;;;;;;0.35;0.10;;;;;;;-142.37;100.00;59669.53;5052821;28;20029;-58
2021/05/03 02:49:33;;;;;;;0.85;0.15;;;;;;;-142.37;100.00;59669.53;5052534;28;20244;-57
2021/05/03 02:51:58;;;;;;;0.80;0.20;;;;;;;-142.37;100.00;59669.53;5052673;28;20126;-58
2021/05/03 02:54:23;;;;;;;0.13;0.13;;;;;;;-142.37;100.00;59669.53;5052443;28;20044;-57
2021/05/03 02:56:49;;;;;;;0.20;0.10;;;;;;;-142.37;100.00;59669.53;5052629;28;20032;-57
2021/05/03 02:59:14;;;;;;;0.20;0.10;;;;;;;-142.37;100.00;59669.53;5052767;28;20025;-58
2021/05/03 03:01:39;;;;;;;0.45;0.20;;;;;;;-142.37;100.00;59669.53;5052402;28;20021;-57
2021/05/03 03:04:04;;;;;;;0.63;0.17;;;;;;;-142.37;100.00;59669.53;5052395;28;20051;-59
2021/05/03 03:06:30;;;;;;;0.30;0.22;;;;;;;-142.37;100.00;59669.53;5048848;28;20459;-57
2021/05/03 03:08:55;;;;;;;0.20;0.20;;;;;;;-142.37;100.00;59669.53;5031313;28;20032;-57
2021/05/03 03:11:21;;;;;;;0.60;0.10;;;;;;;-142.37;100.00;59669.53;5032350;28;20484;-58
2021/05/03 03:13:47;;;;;;;0.20;0.20;;;;;;;-142.37;100.00;59669.53;5032462;28;20024;-57
2021/05/03 03:16:16;;;;;;;0.30;0.10;;;;;;;-142.37;100.00;59669.53;5032501;28;20021;-58
2021/05/03 03:18:41;;;;;;;0.43;0.20;;;;;;;-142.37;100.00;59669.53;5032418;28;20045;-58
2021/05/03 03:21:06;;;;;;;0.20;0.10;;;;;;;-142.37;100.00;59669.53;5032322;28;20115;-58
2021/05/03 03:23:32;;;;;;;0.10;0.10;;;;;;;-142.37;100.00;59669.53;5032189;28;20443;-58
2021/05/03 03:25:57;;;;;;;0.68;0.13;;;;;;;-142.37;100.00;59669.53;5032311;28;20057;-57
2021/05/03 03:28:22;;;;;;;0.13;0.10;;;;;;;-142.37;100.00;59669.53;5032224;28;20033;-58
2021/05/03 03:30:47;;;;;;;0.70;0.22;;;;;;;-142.37;100.00;59669.53;5032391;28;20021;-57
2021/05/03 03:33:13;;;;;;;0.30;0.20;;;;;;;-142.37;100.00;59669.53;5032284;28;20438;-57
2021/05/03 03:35:38;;;;;;;0.17;0.10;;;;;;;-142.37;100.00;59669.53;5032192;28;20030;-58
2021/05/03 03:38:04;;;;;;;0.90;0.28;;;;;;;-142.37;100.00;59669.53;5032279;28;20030;-57
2021/05/03 03:40:29;;;;;;;0.43;0.20;;;;;;;-142.37;100.00;59669.53;5033668;28;20026;-58
2021/05/03 03:42:54;;;;;;;1.02;0.10;;;;;;;-142.37;100.00;59669.53;5036290;28;20026;-58
2021/05/03 03:45:20;;;;;;;0.38;0.10;;;;;;;-142.37;100.00;59669.53;5035919;28;20385;-58
2021/05/03 03:47:45;;;;;;;0.32;0.17;;;;;;;-142.37;100.00;59669.53;5035934;28;20021;-57
2021/05/03 03:50:11;;;;;;;0.13;0.13;;;;;;;-142.37;100.00;59669.53;5036120;28;20059;-58
2021/05/03 03:52:37;;;;;;;0.47;0.15;;;;;;;-142.37;100.00;59669.53;5035926;28;20025;-58
2021/05/03 03:55:03;;;;;;;0.55;0.45;;;;;;;-142.37;100.00;59669.53;5036056;28;20025;-58
2021/05/03 03:57:29;;;;;;;0.45;0.20;;;;;;;-142.37;100.00;59669.53;5035620;28;20025;-58
2021/05/03 03:59:56;;;;;;;1.10;0.30;;;;;;;-142.37;100.00;59669.53;5035864;28;20465;-58
2021/05/03 04:02:22;;;;;;;0.63;0.13;;;;;;;-142.37;100.00;59669.53;5035571;28;20478;-58
2021/05/03 04:10:17;;;;;;;;;;;;;;;-142.37;100.00;59669.53;5036029;28;20026;-58
2021/05/03 04:26:04;;;;;;;0.10;0.00;;;;;;;-142.37;100.00;59669.53;5035440;28;20095;-57
2021/05/03 04:28:29;;;;;;;0.13;0.10;;;;;;;-142.37;100.00;59669.53;5035188;28;20465;-58
2021/05/03 04:30:54;;;;;;;0.25;0.10;;;;;;;-142.37;100.00;59669.53;5035695;28;20487;-58
2021/05/03 04:33:20;;;;;;;0.80;0.30;;;;;;;-142.37;100.00;59669.53;5035043;28;20033;-58
2021/05/03 04:35:45;;;;;;;0.30;0.20;;;;;;;-142.37;100.00;59669.53;5035144;28;20059;-58
2021/05/03 04:38:10;;;;;;;0.45;0.20;;;;;;;-142.37;100.00;59669.53;5035125;28;20030;-57
2021/05/03 04:40:36;;;;;;;0.60;0.20;;;;;;;-142.37;100.00;59669.53;5040733;28;20027;-59
2021/05/03 04:43:01;;;;;;;1.48;0.40;;;;;;;-142.37;100.00;59669.53;5055060;28;20465;-58
2021/05/03 04:45:26;;;;;;;0.70;0.30;;;;;;;-142.37;100.00;59669.53;5054663;28;20033;-58
2021/05/03 04:47:51;;;;;;;0.65;0.10;;;;;;;-142.37;100.00;59669.53;5054866;28;20031;-58
2021/05/03 04:50:17;;;;;;;0.30;0.30;;;;;;;-142.37;100.00;59669.53;5035239;28;20037;-57
2021/05/03 04:52:42;;;;;;;0.88;0.10;;;;;;;-142.37;100.00;59669.53;5034758;28;20108;-58
2021/05/03 04:55:08;;;;;;;0.28;0.20;;;;;;;-142.37;100.00;59669.53;5034953;28;20103;-58
2021/05/03 04:57:34;;;;;;;0.30;0.20;;;;;;;-142.37;100.00;59669.53;5034547;28;20034;-57
2021/05/03 04:59:59;;;;;;;0.22;0.10;;;;;;;-142.37;100.00;59669.53;5034797;28;20032;-58
2021/05/03 05:02:25;;;;;;;0.20;0.10;;;;;;;-142.37;100.00;59669.53;5034574;28;20339;-58
2021/05/03 05:04:50;;;;;;;0.20;0.20;;;;;;;-142.37;100.00;59669.53;5034666;28;20454;-58
2021/05/03 05:07:16;;;;;;;0.50;0.17;;;;;;;-142.37;100.00;59669.53;5034608;28;20056;-57
2021/05/03 05:09:41;;;;;;;0.50;0.25;;;;;;;-142.37;100.00;59669.53;5034526;28;20037;-57
2021/05/03 05:12:06;;;;;;;0.40;0.13;;;;;;;-142.37;100.00;59669.53;5034501;28;20036;-58
2021/05/03 05:14:32;;;;;;;0.20;0.20;;;;;;;-142.37;100.00;59669.53;5034169;28;20155;-57
2021/05/03 05:16:57;;;;;;;0.95;0.40;;;;;;;-142.37;100.00;59669.53;5034561;28;20021;-58
2021/05/03 05:19:23;;;;;;;0.10;0.05;;;;;;;-142.37;100.00;59669.53;5034060;28;20448;-57
2021/05/03 05:21:49;;;;;;;0.45;0.17;;;;;;;-142.37;100.00;59669.53;5032976;28;20025;-58
2021/05/03 05:24:14;;;;;;;0.32;0.20;;;;;;;-142.37;100.00;59669.53;5034193;28;20094;-58
2021/05/03 05:26:40;;;;;;;0.43;0.15;;;;;;;-142.37;100.00;59669.53;5034191;28;20385;-58
2021/05/03 05:29:06;;;;;;;0.63;0.13;;;;;;;-142.37;100.00;59669.53;5034246;28;20026;-58
2021/05/03 05:31:31;;;;;;;0.80;0.10;;;;;;;-142.37;100.00;59669.53;5033989;28;20061;-57
2021/05/03 05:33:56;;;;;;;1.40;0.25;;;;;;;-142.37;100.00;59669.53;5034062;28;20079;-58
2021/05/03 05:36:21;;;;;;;1.65;0.28;;;;;;;-142.37;100.00;59669.53;5033650;28;20060;-58
2021/05/03 05:38:47;;;;;;;0.15;0.00;;;;;;;-142.37;100.00;59669.53;5034156;28;20481;-58
2021/05/03 05:41:14;;;;;;;1.15;0.30;;;;;;;-142.37;100.00;59669.53;5033935;28;20017;-58
2021/05/03 05:43:43;;;;;;;0.20;0.20;;;;;;;-142.37;100.00;59669.53;5033788;28;20033;-57
2021/05/03 05:46:09;;;;;;;0.30;0.10;;;;;;;-142.37;100.00;59669.53;5033907;28;20388;-58
2021/05/03 05:48:35;;;;;;;0.32;0.03;;;;;;;-142.37;100.00;59669.53;5033765;28;20025;-58
2021/05/03 05:51:01;;;;;;;0.43;0.10;;;;;;;-142.37;100.00;59669.53;5033895;28;20055;-58
2021/05/03 05:53:27;;;;;;;0.43;0.20;;;;;;;-142.37;100.00;59669.53;5033643;28;20053;-58
2021/05/03 05:55:52;;;;;;;0.35;0.20;;;;;;;-142.37;100.00;59669.53;5033699;28;20052;-60
2021/05/03 05:58:17;;;;;;;0.22;0.10;;;;;;;-142.37;100.00;59669.53;5033553;28;20028;-60
2021/05/03 06:00:43;;;;;;;0.75;0.32;;;;;;;-142.37;100.00;59669.53;5033522;28;20021;-58
2021/05/03 06:03:08;;;;;;;0.20;0.10;;;;;;;-142.37;100.00;59669.53;5033095;28;20488;-58
2021/05/03 06:05:33;;;;;;;0.28;0.28;;;;;;;-142.37;100.00;59669.53;5033240;28;20033;-58
2021/05/03 06:07:59;;;;;;;0.30;0.10;;;;;;;-142.37;100.00;59669.53;5033270;28;20484;-57
2021/05/03 06:10:24;;;;;;;1.27;0.20;;;;;;;-142.37;100.00;59669.53;5033215;28;20031;-58
2021/05/03 06:12:49;;;;;;;0.63;0.08;;;;;;;-142.37;100.00;59669.53;5033455;28;20033;-58
2021/05/03 06:15:15;;;;;;;0.38;0.10;;;;;;;-142.37;100.00;59669.53;5033329;28;20025;-58
2021/05/03 06:17:40;;;;;;;0.50;0.20;;;;;;;-142.37;100.00;59669.53;5033088;28;20113;-58
2021/05/03 06:20:06;;;;;;;0.40;0.20;;;;;;;-142.37;100.00;59669.53;5019624;28;20045;-57
2021/05/03 06:22:32;;;;;;;0.43;0.17;;;;;;;-142.37;100.00;59669.53;5021344;28;20026;-58
2021/05/03 06:25:00;;;;;;;0.55;0.17;;;;;;;-142.37;100.00;59669.53;5023925;28;20029;-57
2021/05/03 06:27:26;;;;;;;1.05;0.30;;;;;;;-142.37;100.00;59669.53;5023967;28;21592;-58
2021/05/03 06:29:51;;;;;;;0.20;0.10;;;;;;;-142.37;100.00;59669.53;5013292;28;20491;-57
2021/05/03 06:32:16;;;;;;;1.00;0.17;;;;;;;-142.37;100.00;59669.53;5015241;28;20029;-57
2021/05/03 06:34:41;;;;;;;0.28;0.10;;;;;;;-142.37;100.00;59669.53;5025925;28;20412;-58
2021/05/03 06:37:07;;;;;;;0.13;0.10;;;;;;;-142.37;100.00;59669.53;5031380;28;20029;-57
2021/05/03 06:39:32;;;;;;;0.40;0.20;;;;;;;-142.37;100.00;59669.53;5031993;28;20443;-58
2021/05/03 06:41:57;;;;;;;0.65;0.20;;;;;;;-142.37;100.00;59669.53;5030947;28;20404;-58
2021/05/03 06:44:23;;;;;;;0.17;0.10;;;;;;;-142.37;100.00;59669.53;5032632;28;20064;-57
2021/05/03 06:46:48;;;;;;;1.08;0.40;;;;;;;-142.37;100.00;59669.53;5033087;28;20057;-59
2021/05/03 06:49:14;;;;;;;0.45;0.20;;;;;;;-142.37;100.00;59669.53;5032736;28;20465;-58
2021/05/03 06:51:39;;;;;;;0.52;0.20;;;;;;;-142.37;100.00;59669.53;5022752;28;20346;-58
2021/05/03 06:54:04;;;;;;;0.52;0.30;;;;;;;-142.37;100.00;59669.53;5028544;28;20032;-59
2021/05/03 06:56:30;;;;;;;0.68;0.20;;;;;;;-142.37;100.00;59669.53;5032333;28;20491;-58
2021/05/03 06:58:55;;;;;;;0.55;0.28;;;;;;;-142.37;100.00;59669.53;5032742;28;20112;-59
2021/05/03 07:01:22;;;;;;;0.63;0.10;;;;;;;-142.37;100.00;59669.53;5032538;28;20026;-58
2021/05/03 07:03:47;;;;;;;0.95;0.20;;;;;;;-142.37;100.00;59669.53;5031441;28;20441;-58
2021/05/03 07:06:13;;;;;;;0.30;0.10;;;;;;;-142.37;100.00;59669.53;5032479;28;20037;-58
2021/05/03 07:08:39;;;;;;;0.63;0.20;;;;;;;-142.37;100.00;59669.53;5032525;28;20132;-58
2021/05/03 07:11:17;;;;;;;0.45;0.30;;;;;;;-142.37;100.00;59669.53;5030725;28;20052;-58
2021/05/03 07:13:42;;;;;;;0.57;0.20;;;;;;;-142.37;100.00;59669.53;5032341;28;20080;-58
2021/05/03 07:16:08;;;;;;;0.17;0.17;;;;;;;-142.37;100.00;59669.53;5030877;28;20492;-58
2021/05/03 07:18:33;;;;;;;0.25;0.10;;;;;;;-142.37;100.00;59669.53;5027242;28;20060;-58
2021/05/03 07:20:59;;;;;;;0.73;0.22;;;;;;;-142.37;100.00;59669.53;5034694;28;20056;-58
2021/05/03 07:23:25;;;;;;;0.25;0.10;;;;;;;-142.37;100.00;59669.53;5016526;28;20048;-59
2021/05/03 07:25:50;;;;;;;0.28;0.10;;;;;;;-142.37;100.00;59669.53;5016690;28;20465;-58
2021/05/03 07:28:15;;;;;;;0.22;0.10;;;;;;;-142.37;100.00;59669.53;5017696;28;20473;-59
2021/05/03 07:30:41;;;;;;;0.20;0.03;;;;;;;-142.37;100.00;59669.53;5016585;28;20108;-58
2021/05/03 07:33:06;;;;;;;0.30;0.30;;;;;;;-142.37;100.00;59669.53;5015715;28;20029;-58
2021/05/03 07:35:32;;;;;;;1.08;0.40;;;;;;;-142.37;100.00;59669.53;5017795;28;20053;-59
2021/05/03 07:37:57;;;;;;;0.40;0.30;;;;;;;-142.37;100.00;59669.53;5035884;28;20033;-58
2021/05/03 07:40:22;;;;;;;1.27;0.30;;;;;;;-142.37;100.00;59669.53;5036235;28;20029;-58
2021/05/03 07:42:47;;;;;;;0.13;0.10;;;;;;;-142.37;100.00;59669.53;5036218;28;20025;-58
2021/05/03 07:45:15;;;;;;;0.98;0.30;;;;;;;-142.37;100.00;59669.53;5030618;28;20014;-58
2021/05/03 07:47:41;;;;;;;0.65;0.38;;;;;;;-142.37;100.00;59669.53;5016185;28;20060;-59
2021/05/03 07:50:07;;;;;;;0.40;0.20;;;;;;;-142.37;100.00;59669.53;5016113;28;20029;-58
2021/05/03 07:52:33;;;;;;;0.85;0.30;;;;;;;-142.37;100.00;59669.53;5016081;28;20021;-58
2021/05/03 07:54:59;;;;;;;0.55;0.20;;;;;;;-142.37;100.00;59669.53;5028993;28;20075;-59
2021/05/03 07:57:25;;;;;;;0.43;0.15;;;;;;;-142.37;100.00;59669.53;5043019;28;20026;-58
2021/05/03 07:59:51;;;;;;;0.20;0.10;;;;;;;-142.37;100.00;59669.53;5016659;28;20022;-59
2021/05/03 08:02:16;;;;;;;0.60;0.22;;;;;;;-142.37;100.00;59669.53;5020405;28;20036;-58
2021/05/03 08:04:42;;;;;;;0.22;0.10;;;;;;;-142.37;100.00;59669.53;5029003;28;20030;-59
2021/05/03 08:07:07;;;;;;;0.90;0.30;;;;;;;-142.37;100.00;59669.53;5016395;28;20022;-58
2021/05/03 08:09:32;;;;;;;0.40;0.13;;;;;;;-142.37;100.00;59669.53;5029065;28;20076;-59
2021/05/03 08:11:58;;;;;;;0.25;0.10;;;;;;;-142.37;100.00;59669.53;5021426;28;20034;-58
2021/05/03 08:14:23;;;;;;;0.75;0.20;;;;;;;-142.37;100.00;59669.53;5019862;28;20347;-57
2021/05/03 08:16:53;;;;;;;0.15;0.10;;;;;;;-142.37;100.00;59669.53;5016731;28;20085;-57
2021/05/03 08:19:19;;;;;;;1.48;0.20;;;;;;;-142.37;100.00;59669.53;5014749;28;20462;-57
2021/05/03 08:21:44;;;;;;;0.43;0.35;;;;;;;-142.37;100.00;59669.53;5016789;28;20029;-57
2021/05/03 08:24:09;;;;;;;0.63;0.10;;;;;;;-142.37;100.00;59669.53;5026077;28;20029;-59
2021/05/03 08:26:35;;;;;;;1.48;0.35;;;;;;;-142.37;100.00;59669.53;5035110;28;20029;-57
2021/05/03 08:29:01;;;;;;;0.77;0.30;;;;;;;-142.37;100.00;59669.53;5030410;28;20029;-57
2021/05/03 08:31:26;;;;;;;0.65;0.30;;;;;;;-142.37;100.00;59669.53;5018200;28;20113;-58
2021/05/03 08:33:52;;;;;;;4.93;0.45;;;;;;;-142.37;100.00;59669.53;5035398;28;20101;-56
2021/05/03 08:36:17;;;;;;;0.20;0.10;;;;;;;-142.37;100.00;59669.53;5016363;28;20429;-58
2021/05/03 08:38:42;;;;;;;1.90;0.30;;;;;;;-142.37;100.00;59669.53;5016661;28;20048;-57
2021/05/03 08:41:07;;;;;;;0.30;0.10;;;;;;;-142.37;100.00;59669.53;5021674;28;20029;-57
2021/05/03 08:43:39;;;;;;;0.70;0.20;;;;;;;-142.37;100.00;59669.53;5029457;28;20036;-57
2021/05/03 08:46:04;;;;;;;1.73;0.70;;;;;;;-142.37;100.00;59669.53;5027775;28;20476;-57
2021/05/03 08:51:30;;;;;;;0.55;0.38;;;;;;;-142.37;100.00;59669.53;5020197;28;20030;-57
2021/05/03 08:54:02;;;;;;;1.27;0.45;;;;;;;-142.37;100.00;59669.53;5016321;28;20018;-56
2021/05/03 08:56:28;;;;;;;0.40;0.20;;;;;;;-142.37;100.00;59669.53;5024701;28;20021;-57
2021/05/03 08:58:53;;;;;;;0.20;0.20;;;;;;;-142.37;100.00;59669.53;5022360;28;20033;-57
2021/05/03 09:01:21;;;;;;;0.52;0.30;;;;;;;-142.37;100.00;59669.53;5030982;28;20436;-57
2021/05/03 09:03:48;;;;;;;0.70;0.20;;;;;;;-142.37;100.00;59669.53;5022404;28;20057;-56
2021/05/03 09:06:13;;;;;;;0.30;0.20;;;;;;;-142.37;100.00;59669.53;5024620;28;20021;-56
2021/05/03 09:08:38;;;;;;;0.38;0.17;;;;;;;-142.37;100.00;59669.53;5029566;28;20035;-56
2021/05/03 09:11:04;;;;;;;0.45;0.20;;;;;;;-142.37;100.00;59669.53;5032504;28;20492;-58
2021/05/03 09:13:36;;;;;;;0.60;0.20;;;;;;;-142.37;100.00;59669.53;5024143;28;20071;-57
2021/05/03 09:16:19;;;;;;;0.50;0.10;;;;;;;-142.37;100.00;59669.53;5018335;28;20555;-57
2021/05/03 09:18:45;;;;;;;1.35;0.20;;;;;;;-142.37;100.00;59669.53;5017674;28;20029;-57
2021/05/03 09:21:22;;;;;;;0.45;0.20;;;;;;;-142.37;100.00;59669.53;5015838;28;20509;-56
2021/05/03 09:24:07;;;;;;;0.28;0.20;;;;;;;-142.37;100.00;59669.53;5046585;28;20368;-57
2021/05/03 09:26:45;;;;;;;0.20;0.20;;;;;;;-142.37;100.00;59669.53;5042901;28;20052;-57
2021/05/03 09:29:32;;;;;;;0.32;0.10;;;;;;;-142.37;100.00;59669.53;5032289;28;20026;-57
2021/05/03 09:31:59;;;;;;;0.95;0.43;;;;;;;-142.37;100.00;59669.53;5023488;28;20040;-57
2021/05/03 09:34:33;;;;;;;1.35;0.47;;;;;;;-142.37;100.00;59669.53;5029001;28;20029;-56
2021/05/03 09:37:31;;;;;;;0.22;0.10;;;;;;;-142.37;100.00;59669.53;5025353;28;20029;-56
2021/05/03 09:40:04;;;;;;;0.63;0.15;;;;;;;-142.37;100.00;59669.53;5014071;28;20492;-57
2021/05/03 09:42:51;;;;;;;0.65;0.10;;;;;;;-142.37;100.00;59669.53;5024540;28;20052;-57
2021/05/03 09:45:16;;;;;;;0.13;0.10;;;;;;;-142.37;100.00;59669.53;5020076;28;20029;-57
2021/05/03 09:47:42;;;;;;;0.30;0.10;;;;;;;-142.37;100.00;59669.53;5022271;28;20025;-56
2021/05/03 09:50:14;;;;;;;0.10;0.10;;;;;;;-142.37;100.00;59669.53;5029618;28;20400;-57
2021/05/03 09:53:00;;;;;;;0.20;0.20;;;;;;;-142.37;100.00;59669.53;5031599;28;20101;-56
2021/05/03 09:55:39;;;;;;;0.57;0.20;;;;;;;-142.37;100.00;59669.53;5031826;28;20375;-57
2021/05/03 09:58:21;;;;;;;0.60;0.10;;;;;;;-142.37;100.00;59669.53;5026270;28;20030;-57
2021/05/03 10:00:50;;;;;;;0.25;0.20;;;;;;;-142.37;100.00;59669.53;5013200;28;20030;-57
2021/05/03 10:03:47;;;;;;;0.25;0.20;;;;;;;-142.37;100.00;59669.53;5019169;28;20396;-57
2021/05/03 10:06:15;;;;;;;1.75;0.32;;;;;;;-142.37;100.00;59669.53;5013055;28;20022;-57
2021/05/03 10:08:44;;;;;;;0.82;0.13;;;;;;;-142.37;100.00;59669.53;5027156;28;20075;-57
2021/05/03 10:11:14;;;;;;;0.20;0.15;;;;;;;-142.37;100.00;59669.53;5029723;28;20029;-57
2021/05/03 10:13:41;;;;;;;0.85;0.30;;;;;;;-142.37;100.00;59669.53;5019088;28;20025;-57
2021/05/03 10:16:08;;;;;;;0.45;0.20;;;;;;;-142.37;100.00;59669.53;5029329;28;20104;-57
2021/05/03 10:18:36;;;;;;;0.35;0.20;;;;;;;-142.37;100.00;59669.53;5017595;28;20072;-57
2021/05/03 10:21:06;;;;;;;1.00;0.28;;;;;;;-142.37;100.00;59669.53;5029946;28;20051;-57
2021/05/03 10:23:31;;;;;;;0.15;0.15;;;;;;;-142.37;100.00;59669.53;5013581;28;20036;-57
2021/05/03 10:25:59;;;;;;;0.75;0.40;;;;;;;-142.37;100.00;59669.53;5027115;28;20397;-57
2021/05/03 10:28:27;;;;;;;0.35;0.20;;;;;;;-142.37;100.00;59669.53;5020107;28;20076;-57
2021/05/03 10:30:57;;;;;;;0.95;0.20;;;;;;;-142.37;100.00;59669.53;5028739;28;20036;-57
2021/05/03 10:33:36;;;;;;;1.17;0.10;;;;;;;-142.37;100.00;59669.53;5029393;28;20037;-57
2021/05/03 10:36:04;;;;;;;0.00;0.00;;;;;;;-142.37;100.00;59669.53;5024017;28;20026;-56
2021/05/03 10:38:39;;;;;;;0.40;0.17;;;;;;;-142.37;100.00;59669.53;5039619;28;20021;-57
2021/05/03 10:41:31;;;;;;;0.65;0.20;;;;;;;-142.37;100.00;59669.53;5017395;28;20026;-57
2021/05/03 10:44:18;;;;;;;0.40;0.10;;;;;;;-142.37;100.00;59669.53;5012824;28;20029;-57
2021/05/03 10:49:23;;;;;;;0.65;0.30;;;;;;;-142.37;100.00;59669.53;5032799;28;20029;-57
2021/05/03 10:54:15;;;;;;;0.30;0.10;;;;;;;-142.37;100.00;59669.53;5027799;28;20373;-56
2021/05/03 10:56:41;;;;;;;0.10;0.10;;;;;;;-142.37;100.00;59669.53;5015669;28;20034;-57
2021/05/03 10:59:11;;;;;;;0.93;0.28;;;;;;;-142.37;100.00;59669.53;5014823;28;20383;-57
2021/05/03 11:01:51;;;;;;;0.45;0.20;;;;;;;-142.37;100.00;59669.53;5031721;28;20056;-57
2021/05/03 11:04:16;;;;;;;0.20;0.10;;;;;;;-142.37;100.00;59669.53;5024092;28;20125;-57
2021/05/03 11:06:41;;;;;;;0.40;0.17;;;;;;;-142.37;100.00;59669.53;5025379;28;20061;-56
2021/05/03 11:09:25;;;;;;;0.37;0.10;;;;;;;-142.37;100.00;59669.53;5032682;28;20021;-59
2021/05/03 11:11:51;;;;;;;2.67;0.20;;;;;;;-142.37;100.00;59669.53;5017411;28;20275;-58
2021/05/03 11:14:19;;;;;;;0.30;0.30;;;;;;;-142.37;100.00;59669.53;5027909;28;20033;-58
2021/05/03 11:16:46;;;;;;;0.68;0.15;;;;;;;-142.37;100.00;59669.53;5030842;28;20025;-57
2021/05/03 11:23:03;;;;;;;1.70;0.32;;;;;;;-142.37;100.00;59669.53;4988588;28;20510;-55
2021/05/03 11:25:31;;;;;;;1.38;0.25;;;;;;;-142.37;100.00;59669.53;4976973;28;20030;-56
2021/05/03 11:30:32;;;;;;;1.38;0.30;;;;;;;-142.37;100.00;59669.53;4977742;28;20058;-57
2021/05/03 11:33:08;;;;;;;0.82;0.60;;;;;;;-142.37;100.00;59669.53;4978951;28;20454;-57
2021/05/03 11:38:08;;;;;;;0.50;0.20;;;;;;;-142.37;100.00;59669.53;4974216;28;20026;-55
2021/05/03 11:46:34;;;;;;;0.50;0.10;;;;;;;-142.37;100.00;59669.53;4976338;28;20561;-55
2021/05/03 11:49:08;;;;;;;0.30;0.10;;;;;;;-142.37;100.00;59669.53;4973890;28;20076;-55
2021/05/03 11:51:41;;;;;;;;;;;;;;;-142.37;100.00;59669.53;4988499;28;20050;-55